sensor_id;sensor_type;location;lat;lon;timestamp;pressure;altitude;pressure_sealevel;temperature;humidity
26112;BME280;13829;48.990;8.346;2023-04-20T00:02:28;100565.31;;;5.86;83.24
26112;BME280;13829;48.990;8.346;2023-04-20T00:04:54;100561.38;;;6.01;82.75
26112;BME280;13829;48.990;8.346;2023-04-20T00:07:21;100557.59;;;5.91;83.43
26112;BME280;13829;48.990;8.346;2023-04-20T00:09:49;100554.56;;;5.76;85.39
26112;BME280;13829;48.990;8.346;2023-04-20T00:12:16;100547.75;;;5.81;86.03
26112;BME280;13829;48.990;8.346;2023-04-20T00:14:43;100548.84;;;5.89;84.13
26112;BME280;13829;48.990;8.346;2023-04-20T00:17:10;100541.66;;;6.14;83.36
26112;BME280;13829;48.990;8.346;2023-04-20T00:19:38;100532.88;;;6.10;82.68
26112;BME280;13829;48.990;8.346;2023-04-20T00:22:05;100530.66;;;5.92;83.26
26112;BME280;13829;48.990;8.346;2023-04-20T00:24:32;100528.13;;;5.63;83.67
26112;BME280;13829;48.990;8.346;2023-04-20T00:26:59;100528.78;;;5.54;86.31
26112;BME280;13829;48.990;8.346;2023-04-20T00:29:26;100516.03;;;5.65;85.69
26112;BME280;13829;48.990;8.346;2023-04-20T00:31:53;100521.25;;;5.65;86.82
26112;BME280;13829;48.990;8.346;2023-04-20T00:34:20;100505.66;;;5.68;86.26
26112;BME280;13829;48.990;8.346;2023-04-20T00:36:48;100510.06;;;5.71;87.79
26112;BME280;13829;48.990;8.346;2023-04-20T00:39:15;100501.56;;;5.78;86.00
26112;BME280;13829;48.990;8.346;2023-04-20T00:41:42;100508.44;;;5.75;84.80
26112;BME280;13829;48.990;8.346;2023-04-20T00:44:09;100501.03;;;5.58;85.18
26112;BME280;13829;48.990;8.346;2023-04-20T00:46:38;100497.66;;;5.62;85.47
26112;BME280;13829;48.990;8.346;2023-04-20T00:49:08;100495.47;;;5.78;84.83
26112;BME280;13829;48.990;8.346;2023-04-20T00:51:35;100499.94;;;5.82;84.25
26112;BME280;13829;48.990;8.346;2023-04-20T00:54:04;100489.53;;;5.50;84.96
26112;BME280;13829;48.990;8.346;2023-04-20T00:56:31;100485.81;;;5.42;87.31
26112;BME280;13829;48.990;8.346;2023-04-20T00:59:00;100486.66;;;5.41;87.79
26112;BME280;13829;48.990;8.346;2023-04-20T01:01:27;100489.44;;;5.47;86.90
26112;BME280;13829;48.990;8.346;2023-04-20T01:03:54;100479.66;;;5.39;86.02
26112;BME280;13829;48.990;8.346;2023-04-20T01:06:21;100482.41;;;5.44;85.73
26112;BME280;13829;48.990;8.346;2023-04-20T01:08:50;100478.56;;;5.63;85.27
26112;BME280;13829;48.990;8.346;2023-04-20T01:11:18;100473.72;;;5.44;85.73
26112;BME280;13829;48.990;8.346;2023-04-20T01:13:45;100467.00;;;5.21;88.25
26112;BME280;13829;48.990;8.346;2023-04-20T01:16:12;100461.59;;;5.14;88.58
26112;BME280;13829;48.990;8.346;2023-04-20T01:18:41;100462.38;;;5.11;90.12
26112;BME280;13829;48.990;8.346;2023-04-20T01:21:10;100456.41;;;5.15;89.38
26112;BME280;13829;48.990;8.346;2023-04-20T01:23:38;100456.38;;;5.46;87.20
26112;BME280;13829;48.990;8.346;2023-04-20T01:26:06;100455.25;;;5.69;85.10
26112;BME280;13829;48.990;8.346;2023-04-20T01:28:33;100444.03;;;5.38;85.14
26112;BME280;13829;48.990;8.346;2023-04-20T01:31:02;100450.09;;;5.39;84.75
26112;BME280;13829;48.990;8.346;2023-04-20T01:33:29;100443.03;;;5.33;84.29
26112;BME280;13829;48.990;8.346;2023-04-20T01:35:56;100428.97;;;5.28;86.35
26112;BME280;13829;48.990;8.346;2023-04-20T01:38:26;100425.38;;;5.58;84.13
26112;BME280;13829;48.990;8.346;2023-04-20T01:40:56;100424.69;;;5.64;83.26
26112;BME280;13829;48.990;8.346;2023-04-20T01:43:24;100426.22;;;5.57;83.92
26112;BME280;13829;48.990;8.346;2023-04-20T01:45:51;100431.31;;;5.19;83.17
26112;BME280;13829;48.990;8.346;2023-04-20T01:48:18;100421.66;;;5.15;84.88
26112;BME280;13829;48.990;8.346;2023-04-20T01:50:45;100420.06;;;5.20;86.12
26112;BME280;13829;48.990;8.346;2023-04-20T01:53:12;100416.63;;;5.22;87.08
26112;BME280;13829;48.990;8.346;2023-04-20T01:55:39;100415.94;;;5.28;85.57
26112;BME280;13829;48.990;8.346;2023-04-20T01:58:07;100412.22;;;5.20;87.03
26112;BME280;13829;48.990;8.346;2023-04-20T02:00:34;100409.63;;;5.20;87.86
26112;BME280;13829;48.990;8.346;2023-04-20T02:03:01;100406.97;;;5.18;87.08
26112;BME280;13829;48.990;8.346;2023-04-20T02:05:28;100405.41;;;5.25;85.03
26112;BME280;13829;48.990;8.346;2023-04-20T02:07:55;100408.19;;;5.31;84.18
26112;BME280;13829;48.990;8.346;2023-04-20T02:10:22;100410.78;;;5.31;85.01
26112;BME280;13829;48.990;8.346;2023-04-20T02:12:49;100408.63;;;5.15;84.90
26112;BME280;13829;48.990;8.346;2023-04-20T02:15:17;100406.66;;;5.07;85.95
26112;BME280;13829;48.990;8.346;2023-04-20T02:17:44;100399.41;;;4.96;85.44
26112;BME280;13829;48.990;8.346;2023-04-20T02:20:17;100403.16;;;5.05;85.36
26112;BME280;13829;48.990;8.346;2023-04-20T02:22:45;100403.22;;;5.09;84.64
26112;BME280;13829;48.990;8.346;2023-04-20T02:25:12;100398.09;;;5.12;84.51
26112;BME280;13829;48.990;8.346;2023-04-20T02:27:40;100392.97;;;5.15;84.63
26112;BME280;13829;48.990;8.346;2023-04-20T02:30:08;100395.22;;;5.01;84.87
26112;BME280;13829;48.990;8.346;2023-04-20T02:32:37;100403.16;;;5.05;84.69
26112;BME280;13829;48.990;8.346;2023-04-20T02:35:05;100397.19;;;4.78;85.29
26112;BME280;13829;48.990;8.346;2023-04-20T02:37:32;100387.44;;;4.72;86.07
26112;BME280;13829;48.990;8.346;2023-04-20T02:39:59;100382.34;;;4.75;84.97
26112;BME280;13829;48.990;8.346;2023-04-20T02:42:26;100381.03;;;4.91;83.95
26112;BME280;13829;48.990;8.346;2023-04-20T02:44:53;100376.94;;;4.99;83.65
26112;BME280;13829;48.990;8.346;2023-04-20T02:47:20;100370.53;;;4.88;83.98
26112;BME280;13829;48.990;8.346;2023-04-20T02:49:48;100368.38;;;4.73;84.86
26112;BME280;13829;48.990;8.346;2023-04-20T02:52:15;100363.16;;;4.73;85.17
26112;BME280;13829;48.990;8.346;2023-04-20T02:54:44;100367.13;;;4.90;84.73
26112;BME280;13829;48.990;8.346;2023-04-20T02:57:12;100363.63;;;4.90;83.84
26112;BME280;13829;48.990;8.346;2023-04-20T02:59:39;100356.88;;;4.97;83.67
26112;BME280;13829;48.990;8.346;2023-04-20T03:02:06;100352.09;;;5.14;82.95
26112;BME280;13829;48.990;8.346;2023-04-20T03:04:33;100349.31;;;5.07;82.78
26112;BME280;13829;48.990;8.346;2023-04-20T03:07:01;100352.88;;;4.78;84.81
26112;BME280;13829;48.990;8.346;2023-04-20T03:09:29;100350.84;;;4.67;85.45
26112;BME280;13829;48.990;8.346;2023-04-20T03:11:56;100359.34;;;4.92;83.13
26112;BME280;13829;48.990;8.346;2023-04-20T03:14:23;100352.31;;;4.89;82.86
26112;BME280;13829;48.990;8.346;2023-04-20T03:16:50;100355.97;;;4.96;82.32
26112;BME280;13829;48.990;8.346;2023-04-20T03:19:17;100355.91;;;4.93;82.10
26112;BME280;13829;48.990;8.346;2023-04-20T03:21:44;100355.69;;;4.85;82.72
26112;BME280;13829;48.990;8.346;2023-04-20T03:24:12;100348.84;;;4.89;81.73
26112;BME280;13829;48.990;8.346;2023-04-20T03:26:41;100350.03;;;4.70;82.80
26112;BME280;13829;48.990;8.346;2023-04-20T03:29:08;100344.34;;;4.51;85.04
26112;BME280;13829;48.990;8.346;2023-04-20T03:31:35;100339.50;;;4.65;84.22
26112;BME280;13829;48.990;8.346;2023-04-20T03:34:02;100336.56;;;4.85;83.71
26112;BME280;13829;48.990;8.346;2023-04-20T03:36:29;100339.13;;;4.83;83.47
26112;BME280;13829;48.990;8.346;2023-04-20T03:38:56;100346.81;;;4.79;83.00
26112;BME280;13829;48.990;8.346;2023-04-20T03:41:24;100338.53;;;4.62;85.72
26112;BME280;13829;48.990;8.346;2023-04-20T03:43:51;100350.41;;;4.52;84.98
26112;BME280;13829;48.990;8.346;2023-04-20T03:46:18;100347.31;;;4.65;83.56
26112;BME280;13829;48.990;8.346;2023-04-20T03:48:45;100347.03;;;4.56;84.58
26112;BME280;13829;48.990;8.346;2023-04-20T03:51:12;100339.06;;;4.80;84.11
26112;BME280;13829;48.990;8.346;2023-04-20T03:53:39;100339.47;;;4.96;84.06
26112;BME280;13829;48.990;8.346;2023-04-20T03:56:06;100344.06;;;4.72;83.88
26112;BME280;13829;48.990;8.346;2023-04-20T03:58:35;100338.56;;;4.95;83.67
26112;BME280;13829;48.990;8.346;2023-04-20T04:01:02;100339.13;;;4.83;83.36
26112;BME280;13829;48.990;8.346;2023-04-20T04:03:32;100341.28;;;4.66;82.98
26112;BME280;13829;48.990;8.346;2023-04-20T04:05:59;100342.88;;;4.61;84.14
26112;BME280;13829;48.990;8.346;2023-04-20T04:08:26;100338.06;;;4.45;84.52
26112;BME280;13829;48.990;8.346;2023-04-20T04:10:53;100340.44;;;4.37;85.49
26112;BME280;13829;48.990;8.346;2023-04-20T04:13:20;100340.75;;;4.17;86.19
26112;BME280;13829;48.990;8.346;2023-04-20T04:15:48;100336.50;;;4.21;88.62
26112;BME280;13829;48.990;8.346;2023-04-20T04:18:15;100342.59;;;4.21;87.63
26112;BME280;13829;48.990;8.346;2023-04-20T04:20:42;100337.69;;;4.31;88.49
26112;BME280;13829;48.990;8.346;2023-04-20T04:23:09;100338.53;;;4.31;87.49
26112;BME280;13829;48.990;8.346;2023-04-20T04:25:37;100332.34;;;4.28;87.79
26112;BME280;13829;48.990;8.346;2023-04-20T04:28:04;100333.56;;;4.10;88.06
26112;BME280;13829;48.990;8.346;2023-04-20T04:30:32;100328.19;;;4.04;89.16
26112;BME280;13829;48.990;8.346;2023-04-20T04:33:00;100326.44;;;4.03;88.96
26112;BME280;13829;48.990;8.346;2023-04-20T04:35:29;100327.22;;;4.00;90.12
26112;BME280;13829;48.990;8.346;2023-04-20T04:37:56;100331.13;;;4.15;90.26
26112;BME280;13829;48.990;8.346;2023-04-20T04:40:23;100330.28;;;4.16;90.69
26112;BME280;13829;48.990;8.346;2023-04-20T04:42:50;100330.25;;;4.45;89.29
26112;BME280;13829;48.990;8.346;2023-04-20T04:45:17;100327.31;;;4.64;87.04
26112;BME280;13829;48.990;8.346;2023-04-20T04:47:44;100327.31;;;4.64;87.00
26112;BME280;13829;48.990;8.346;2023-04-20T04:50:12;100331.38;;;4.54;86.53
26112;BME280;13829;48.990;8.346;2023-04-20T04:52:39;100329.09;;;4.35;87.51
26112;BME280;13829;48.990;8.346;2023-04-20T04:55:07;100328.28;;;4.36;87.89
26112;BME280;13829;48.990;8.346;2023-04-20T04:57:34;100326.22;;;4.25;89.76
26112;BME280;13829;48.990;8.346;2023-04-20T05:00:04;100320.97;;;4.54;89.16
26112;BME280;13829;48.990;8.346;2023-04-20T05:02:34;100324.38;;;4.84;87.35
26112;BME280;13829;48.990;8.346;2023-04-20T05:05:01;100326.56;;;4.68;87.98
26112;BME280;13829;48.990;8.346;2023-04-20T05:07:29;100326.91;;;4.81;87.86
26112;BME280;13829;48.990;8.346;2023-04-20T05:09:56;100329.63;;;4.53;88.61
26112;BME280;13829;48.990;8.346;2023-04-20T05:12:23;100329.94;;;4.64;87.01
26112;BME280;13829;48.990;8.346;2023-04-20T05:14:51;100322.28;;;4.70;86.98
26112;BME280;13829;48.990;8.346;2023-04-20T05:17:18;100317.28;;;4.78;86.30
26112;BME280;13829;48.990;8.346;2023-04-20T05:19:45;100319.56;;;4.67;86.54
26112;BME280;13829;48.990;8.346;2023-04-20T05:22:12;100318.84;;;4.71;86.22
26112;BME280;13829;48.990;8.346;2023-04-20T05:24:40;100316.91;;;4.64;86.35
26112;BME280;13829;48.990;8.346;2023-04-20T05:27:08;100311.03;;;4.71;86.85
26112;BME280;13829;48.990;8.346;2023-04-20T05:29:36;100315.47;;;4.76;86.34
26112;BME280;13829;48.990;8.346;2023-04-20T05:32:03;100318.16;;;4.79;85.92
26112;BME280;13829;48.990;8.346;2023-04-20T05:34:30;100313.03;;;5.15;85.98
26112;BME280;13829;48.990;8.346;2023-04-20T05:36:58;100319.13;;;5.51;83.87
26112;BME280;13829;48.990;8.346;2023-04-20T05:39:25;100322.03;;;5.63;82.75
26112;BME280;13829;48.990;8.346;2023-04-20T05:41:56;100321.34;;;5.70;82.54
26112;BME280;13829;48.990;8.346;2023-04-20T05:44:23;100321.63;;;5.83;81.27
26112;BME280;13829;48.990;8.346;2023-04-20T05:46:50;100316.25;;;5.77;79.19
26112;BME280;13829;48.990;8.346;2023-04-20T05:49:17;100317.66;;;5.99;79.47
26112;BME280;13829;48.990;8.346;2023-04-20T05:51:44;100319.91;;;5.85;79.16
26112;BME280;13829;48.990;8.346;2023-04-20T05:54:11;100314.09;;;5.97;78.43
26112;BME280;13829;48.990;8.346;2023-04-20T05:56:38;100317.88;;;5.71;79.78
26112;BME280;13829;48.990;8.346;2023-04-20T05:59:07;100314.50;;;5.76;79.58
26112;BME280;13829;48.990;8.346;2023-04-20T06:01:34;100316.59;;;5.92;79.00
26112;BME280;13829;48.990;8.346;2023-04-20T06:04:01;100315.72;;;5.92;78.58
26112;BME280;13829;48.990;8.346;2023-04-20T06:06:31;100320.50;;;6.10;78.36
26112;BME280;13829;48.990;8.346;2023-04-20T06:08:58;100318.88;;;6.15;77.20
26112;BME280;13829;48.990;8.346;2023-04-20T06:11:25;100325.78;;;6.13;77.29
26112;BME280;13829;48.990;8.346;2023-04-20T06:13:52;100321.00;;;6.34;78.46
26112;BME280;13829;48.990;8.346;2023-04-20T06:16:20;100324.69;;;6.44;77.27
26112;BME280;13829;48.990;8.346;2023-04-20T06:18:47;100326.50;;;6.47;76.06
26112;BME280;13829;48.990;8.346;2023-04-20T06:21:14;100324.69;;;6.43;77.00
26112;BME280;13829;48.990;8.346;2023-04-20T06:23:42;100328.22;;;6.45;78.27
26112;BME280;13829;48.990;8.346;2023-04-20T06:26:09;100325.78;;;6.54;76.87
26112;BME280;13829;48.990;8.346;2023-04-20T06:28:37;100329.09;;;6.45;79.58
26112;BME280;13829;48.990;8.346;2023-04-20T06:31:04;100322.50;;;6.66;76.80
26112;BME280;13829;48.990;8.346;2023-04-20T06:33:32;100320.44;;;6.48;76.17
26112;BME280;13829;48.990;8.346;2023-04-20T06:35:59;100319.59;;;6.49;76.27
26112;BME280;13829;48.990;8.346;2023-04-20T06:38:26;100327.66;;;6.61;75.67
26112;BME280;13829;48.990;8.346;2023-04-20T06:40:53;100312.84;;;6.60;76.32
26112;BME280;13829;48.990;8.346;2023-04-20T06:43:22;100310.34;;;6.66;76.20
26112;BME280;13829;48.990;8.346;2023-04-20T06:45:48;100325.97;;;6.65;75.66
26112;BME280;13829;48.990;8.346;2023-04-20T06:48:15;100309.75;;;7.32;73.26
26112;BME280;13829;48.990;8.346;2023-04-20T06:50:46;100307.13;;;8.50;67.14
26112;BME280;13829;48.990;8.346;2023-04-20T06:53:14;100293.50;;;9.98;60.63
26112;BME280;13829;48.990;8.346;2023-04-20T06:55:41;100287.78;;;11.01;57.16
26112;BME280;13829;48.990;8.346;2023-04-20T06:58:08;100289.41;;;12.26;52.72
26112;BME280;13829;48.990;8.346;2023-04-20T07:00:35;100286.56;;;12.72;49.21
26112;BME280;13829;48.990;8.346;2023-04-20T07:03:03;100287.81;;;13.44;47.67
26112;BME280;13829;48.990;8.346;2023-04-20T07:05:29;100284.47;;;14.12;46.90
26112;BME280;13829;48.990;8.346;2023-04-20T07:07:58;100292.78;;;13.77;46.27
26112;BME280;13829;48.990;8.346;2023-04-20T07:10:25;100274.75;;;14.16;45.34
26112;BME280;13829;48.990;8.346;2023-04-20T07:12:52;100272.81;;;14.96;43.02
26112;BME280;13829;48.990;8.346;2023-04-20T07:15:21;100272.75;;;15.54;42.08
26112;BME280;13829;48.990;8.346;2023-04-20T07:17:48;100267.75;;;15.38;42.29
26112;BME280;13829;48.990;8.346;2023-04-20T07:20:15;100269.72;;;15.24;41.94
26112;BME280;13829;48.990;8.346;2023-04-20T07:22:42;100259.97;;;15.29;42.47
26112;BME280;13829;48.990;8.346;2023-04-20T07:25:10;100267.31;;;16.11;40.53
26112;BME280;13829;48.990;8.346;2023-04-20T07:27:39;100259.13;;;15.75;41.02
26112;BME280;13829;48.990;8.346;2023-04-20T07:30:08;100262.47;;;15.87;41.35
26112;BME280;13829;48.990;8.346;2023-04-20T07:32:37;100257.91;;;15.93;40.71
26112;BME280;13829;48.990;8.346;2023-04-20T07:35:06;100256.75;;;16.08;40.11
26112;BME280;13829;48.990;8.346;2023-04-20T07:37:33;100260.88;;;15.76;40.77
26112;BME280;13829;48.990;8.346;2023-04-20T07:40:01;100253.63;;;16.72;39.82
26112;BME280;13829;48.990;8.346;2023-04-20T07:42:33;100242.00;;;16.76;39.91
26112;BME280;13829;48.990;8.346;2023-04-20T07:45:01;100247.97;;;16.06;40.38
26112;BME280;13829;48.990;8.346;2023-04-20T07:47:29;100245.13;;;14.56;43.82
26112;BME280;13829;48.990;8.346;2023-04-20T07:49:56;100263.00;;;13.62;45.65
26112;BME280;13829;48.990;8.346;2023-04-20T07:52:23;100249.53;;;13.85;47.28
26112;BME280;13829;48.990;8.346;2023-04-20T07:54:50;100251.31;;;14.55;45.01
26112;BME280;13829;48.990;8.346;2023-04-20T07:57:19;100239.53;;;15.36;44.31
26112;BME280;13829;48.990;8.346;2023-04-20T07:59:47;100240.31;;;15.89;41.97
26112;BME280;13829;48.990;8.346;2023-04-20T08:02:15;100229.97;;;16.21;43.97
26112;BME280;13829;48.990;8.346;2023-04-20T08:04:42;100227.44;;;16.14;41.41
26112;BME280;13829;48.990;8.346;2023-04-20T08:07:11;100241.56;;;15.70;40.89
26112;BME280;13829;48.990;8.346;2023-04-20T08:09:38;100229.25;;;15.67;42.71
26112;BME280;13829;48.990;8.346;2023-04-20T08:12:06;100229.28;;;16.52;43.15
26112;BME280;13829;48.990;8.346;2023-04-20T08:14:33;100229.44;;;16.45;40.00
26112;BME280;13829;48.990;8.346;2023-04-20T08:17:01;100228.31;;;15.70;40.88
26112;BME280;13829;48.990;8.346;2023-04-20T08:19:28;100229.19;;;15.19;41.46
26112;BME280;13829;48.990;8.346;2023-04-20T08:21:55;100224.00;;;14.51;44.57
26112;BME280;13829;48.990;8.346;2023-04-20T08:24:22;100235.59;;;14.44;44.15
26112;BME280;13829;48.990;8.346;2023-04-20T08:26:49;100240.16;;;13.55;45.77
26112;BME280;13829;48.990;8.346;2023-04-20T08:29:16;100233.72;;;13.79;46.02
26112;BME280;13829;48.990;8.346;2023-04-20T08:31:43;100230.31;;;13.68;45.93
26112;BME280;13829;48.990;8.346;2023-04-20T08:34:12;100221.81;;;13.36;46.39
26112;BME280;13829;48.990;8.346;2023-04-20T08:36:39;100223.31;;;13.67;47.85
26112;BME280;13829;48.990;8.346;2023-04-20T08:39:09;100220.72;;;13.62;46.14
26112;BME280;13829;48.990;8.346;2023-04-20T08:41:36;100206.81;;;14.19;47.29
26112;BME280;13829;48.990;8.346;2023-04-20T08:44:03;100213.50;;;14.48;45.66
26112;BME280;13829;48.990;8.346;2023-04-20T08:46:33;100208.50;;;14.27;45.29
26112;BME280;13829;48.990;8.346;2023-04-20T08:49:00;100209.06;;;13.80;47.32
26112;BME280;13829;48.990;8.346;2023-04-20T08:51:29;100203.03;;;13.70;46.28
26112;BME280;13829;48.990;8.346;2023-04-20T08:54:03;100211.59;;;13.01;48.92
26112;BME280;13829;48.990;8.346;2023-04-20T08:56:35;100208.06;;;12.99;48.35
26112;BME280;13829;48.990;8.346;2023-04-20T08:59:03;100207.91;;;13.17;48.00
26112;BME280;13829;48.990;8.346;2023-04-20T09:01:31;100210.44;;;13.28;49.35
26112;BME280;13829;48.990;8.346;2023-04-20T09:04:00;100207.13;;;13.03;48.66
26112;BME280;13829;48.990;8.346;2023-04-20T09:06:28;100206.28;;;13.02;48.43
26112;BME280;13829;48.990;8.346;2023-04-20T09:08:56;100199.13;;;13.12;48.90
26112;BME280;13829;48.990;8.346;2023-04-20T09:11:24;100193.69;;;13.34;48.16
26112;BME280;13829;48.990;8.346;2023-04-20T09:14:02;100185.22;;;13.85;47.02
26112;BME280;13829;48.990;8.346;2023-04-20T09:16:31;100193.19;;;13.80;48.42
26112;BME280;13829;48.990;8.346;2023-04-20T09:18:59;100196.06;;;13.60;46.77
26112;BME280;13829;48.990;8.346;2023-04-20T09:21:28;100201.84;;;13.06;47.92
26112;BME280;13829;48.990;8.346;2023-04-20T09:24:00;100197.81;;;12.52;49.81
26112;BME280;13829;48.990;8.346;2023-04-20T09:26:32;100191.63;;;12.61;49.53
26112;BME280;13829;48.990;8.346;2023-04-20T09:29:00;100188.75;;;12.94;50.18
26112;BME280;13829;48.990;8.346;2023-04-20T09:31:27;100181.84;;;12.74;49.52
26112;BME280;13829;48.990;8.346;2023-04-20T09:34:01;100181.06;;;12.64;50.80
26112;BME280;13829;48.990;8.346;2023-04-20T09:36:37;100174.63;;;13.01;50.16
26112;BME280;13829;48.990;8.346;2023-04-20T09:39:08;100188.97;;;12.63;49.42
26112;BME280;13829;48.990;8.346;2023-04-20T09:41:37;100170.72;;;12.30;51.02
26112;BME280;13829;48.990;8.346;2023-04-20T09:44:05;100169.88;;;12.22;51.57
26112;BME280;13829;48.990;8.346;2023-04-20T09:46:35;100172.38;;;12.47;51.59
26112;BME280;13829;48.990;8.346;2023-04-20T09:49:04;100169.88;;;12.27;50.39
26112;BME280;13829;48.990;8.346;2023-04-20T09:51:33;100165.56;;;12.10;51.65
26112;BME280;13829;48.990;8.346;2023-04-20T09:54:04;100158.56;;;11.90;52.66
26112;BME280;13829;48.990;8.346;2023-04-20T09:56:34;100158.38;;;12.32;52.46
26112;BME280;13829;48.990;8.346;2023-04-20T09:59:01;100163.84;;;11.94;52.18
26112;BME280;13829;48.990;8.346;2023-04-20T10:01:30;100156.00;;;11.75;54.30
26112;BME280;13829;48.990;8.346;2023-04-20T10:04:00;100166.50;;;11.84;53.17
26112;BME280;13829;48.990;8.346;2023-04-20T10:06:31;100161.22;;;11.97;54.00
26112;BME280;13829;48.990;8.346;2023-04-20T10:09:03;100156.81;;;12.00;52.67
26112;BME280;13829;48.990;8.346;2023-04-20T10:11:33;100156.81;;;12.02;52.56
26112;BME280;13829;48.990;8.346;2023-04-20T10:14:13;100156.06;;;11.66;52.94
26112;BME280;13829;48.990;8.346;2023-04-20T10:16:41;100163.03;;;11.81;53.29
26112;BME280;13829;48.990;8.346;2023-04-20T10:19:08;100159.47;;;11.89;53.50
26112;BME280;13829;48.990;8.346;2023-04-20T10:21:45;100143.50;;;12.25;53.50
26112;BME280;13829;48.990;8.346;2023-04-20T10:24:14;100147.94;;;12.20;52.31
26112;BME280;13829;48.990;8.346;2023-04-20T10:26:44;100147.00;;;12.29;52.79
26112;BME280;13829;48.990;8.346;2023-04-20T10:29:22;100143.19;;;12.73;52.00
26112;BME280;13829;48.990;8.346;2023-04-20T10:31:50;100142.25;;;12.79;52.21
26112;BME280;13829;48.990;8.346;2023-04-20T10:34:29;100141.28;;;12.87;50.67
26112;BME280;13829;48.990;8.346;2023-04-20T10:37:07;100136.00;;;12.87;51.23
26112;BME280;13829;48.990;8.346;2023-04-20T10:39:43;100139.56;;;12.83;51.39
26112;BME280;13829;48.990;8.346;2023-04-20T10:42:10;100135.19;;;12.79;51.05
26112;BME280;13829;48.990;8.346;2023-04-20T10:44:47;100126.19;;;13.05;51.25
26112;BME280;13829;48.990;8.346;2023-04-20T10:47:14;100135.91;;;12.97;50.77
26112;BME280;13829;48.990;8.346;2023-04-20T10:49:41;100128.88;;;12.96;51.22
26112;BME280;13829;48.990;8.346;2023-04-20T10:52:08;100134.53;;;12.51;51.84
26112;BME280;13829;48.990;8.346;2023-04-20T10:54:38;100126.38;;;12.83;52.88
26112;BME280;13829;48.990;8.346;2023-04-20T10:57:06;100122.22;;;12.53;52.56
26112;BME280;13829;48.990;8.346;2023-04-20T10:59:33;100122.09;;;12.65;52.44
26112;BME280;13829;48.990;8.346;2023-04-20T11:02:05;100123.78;;;12.74;52.93
26112;BME280;13829;48.990;8.346;2023-04-20T11:04:33;100123.47;;;11.85;53.70
26112;BME280;13829;48.990;8.346;2023-04-20T11:07:05;100122.53;;;12.02;55.91
26112;BME280;13829;48.990;8.346;2023-04-20T11:09:34;100120.66;;;12.24;57.74
26112;BME280;13829;48.990;8.346;2023-04-20T11:12:06;100119.13;;;11.78;58.31
26112;BME280;13829;48.990;8.346;2023-04-20T11:14:36;100120.91;;;11.73;62.05
26112;BME280;13829;48.990;8.346;2023-04-20T11:17:06;100120.97;;;11.54;60.97
26112;BME280;13829;48.990;8.346;2023-04-20T11:19:34;100121.81;;;11.64;60.01
26112;BME280;13829;48.990;8.346;2023-04-20T11:22:04;100118.19;;;11.85;59.16
26112;BME280;13829;48.990;8.346;2023-04-20T11:24:33;100116.56;;;11.59;60.53
26112;BME280;13829;48.990;8.346;2023-04-20T11:27:01;100125.47;;;11.21;60.10
26112;BME280;13829;48.990;8.346;2023-04-20T11:29:32;100133.38;;;10.90;63.58
26112;BME280;13829;48.990;8.346;2023-04-20T11:32:02;100133.41;;;10.66;69.93
26112;BME280;13829;48.990;8.346;2023-04-20T11:34:31;100122.00;;;10.57;74.08
26112;BME280;13829;48.990;8.346;2023-04-20T11:37:04;100122.00;;;10.42;75.76
26112;BME280;13829;48.990;8.346;2023-04-20T11:39:31;100119.38;;;10.67;77.31
26112;BME280;13829;48.990;8.346;2023-04-20T11:41:58;100113.22;;;10.94;74.18
26112;BME280;13829;48.990;8.346;2023-04-20T11:44:26;100111.44;;;11.07;75.22
26112;BME280;13829;48.990;8.346;2023-04-20T11:46:56;100100.78;;;11.53;78.59
26112;BME280;13829;48.990;8.346;2023-04-20T11:49:24;100100.69;;;11.70;74.71
26112;BME280;13829;48.990;8.346;2023-04-20T11:51:51;100105.88;;;11.94;72.02
26112;BME280;13829;48.990;8.346;2023-04-20T11:54:18;100095.31;;;12.01;71.25
26112;BME280;13829;48.990;8.346;2023-04-20T11:56:46;100102.38;;;11.88;69.75
26112;BME280;13829;48.990;8.346;2023-04-20T11:59:14;100103.25;;;11.84;69.91
26112;BME280;13829;48.990;8.346;2023-04-20T12:01:44;100107.69;;;11.78;72.40
26112;BME280;13829;48.990;8.346;2023-04-20T12:04:12;100116.47;;;11.77;69.05
26112;BME280;13829;48.990;8.346;2023-04-20T12:06:40;100113.16;;;11.28;68.89
26112;BME280;13829;48.990;8.346;2023-04-20T12:09:07;100106.19;;;11.15;70.55
26112;BME280;13829;48.990;8.346;2023-04-20T12:11:34;100103.53;;;11.13;69.42
26112;BME280;13829;48.990;8.346;2023-04-20T12:14:01;100094.63;;;11.51;68.73
26112;BME280;13829;48.990;8.346;2023-04-20T12:16:29;100098.97;;;11.66;68.21
26112;BME280;13829;48.990;8.346;2023-04-20T12:18:56;100099.88;;;11.67;67.76
26112;BME280;13829;48.990;8.346;2023-04-20T12:21:24;100106.84;;;11.74;63.88
26112;BME280;13829;48.990;8.346;2023-04-20T12:23:51;100097.16;;;11.78;64.66
26112;BME280;13829;48.990;8.346;2023-04-20T12:26:18;100098.81;;;12.05;64.45
26112;BME280;13829;48.990;8.346;2023-04-20T12:28:45;100097.16;;;11.79;62.28
26112;BME280;13829;48.990;8.346;2023-04-20T12:31:12;100095.19;;;12.21;64.53
26112;BME280;13829;48.990;8.346;2023-04-20T12:33:39;100087.25;;;12.28;61.63
26112;BME280;13829;48.990;8.346;2023-04-20T12:36:07;100090.56;;;12.54;63.18
26112;BME280;13829;48.990;8.346;2023-04-20T12:38:35;100099.25;;;12.63;58.11
26112;BME280;13829;48.990;8.346;2023-04-20T12:41:02;100096.66;;;12.60;60.73
26112;BME280;13829;48.990;8.346;2023-04-20T12:43:30;100100.19;;;12.59;59.65
26112;BME280;13829;48.990;8.346;2023-04-20T12:45:57;100095.69;;;12.73;60.12
26112;BME280;13829;48.990;8.346;2023-04-20T12:48:24;100090.50;;;12.57;58.84
26112;BME280;13829;48.990;8.346;2023-04-20T12:50:51;100092.28;;;12.59;60.11
26112;BME280;13829;48.990;8.346;2023-04-20T12:53:18;100090.78;;;12.23;60.73
26112;BME280;13829;48.990;8.346;2023-04-20T12:55:46;100094.34;;;12.13;62.45
26112;BME280;13829;48.990;8.346;2023-04-20T12:58:13;100085.56;;;12.17;62.66
26112;BME280;13829;48.990;8.346;2023-04-20T13:00:40;100091.78;;;12.05;63.07